Time;durP1;ratioP1;P1;durP2;ratioP2;P2;SDS_P1;SDS_P2;PMS_P1;PMS_P2;Temp;Humidity;BMP_temperature;BMP_pressure;BME280_temperature;BME280_humidity;BME280_pressure;Samples;Min_cycle;Max_cycle;Signal;HPM_P1;HPM_P2
2023/03/11 00:01:11;;;;;;;2.88;1.50;;;;;;;;;;4962035;28;20763;-81
2023/03/11 00:03:37;;;;;;;2.55;1.45;;;;;;;;;;4976158;28;20054;-85
2023/03/11 00:06:03;;;;;;;1.77;1.40;;;;;;;;;;4968156;28;20037;-87
2023/03/11 00:08:29;;;;;;;3.08;1.77;;;;;;;;;;4969717;28;20022;-84
2023/03/11 00:10:57;;;;;;;1.73;1.27;;;;;;;;;;4962199;28;20034;-87
2023/03/11 00:13:23;;;;;;;2.42;1.50;;;;;;;;;;4970884;28;20621;-77
2023/03/11 00:15:54;;;;;;;3.38;1.40;;;;;;;;;;4957326;28;20046;-77
2023/03/11 00:18:24;;;;;;;3.65;2.03;;;;;;;;;;4971423;28;20368;-77
2023/03/11 00:20:50;;;;;;;2.22;1.42;;;;;;;;;;4962423;28;20039;-77
2023/03/11 00:23:16;;;;;;;1.33;1.20;;;;;;;;;;4976795;28;20030;-74
2023/03/11 00:25:43;;;;;;;2.53;1.58;;;;;;;;;;4984402;28;20485;-74
2023/03/11 00:28:10;;;;;;;1.60;1.17;;;;;;;;;;4966188;28;20023;-74
2023/03/11 00:30:36;;;;;;;3.42;1.30;;;;;;;;;;4972986;28;20065;-75
2023/03/11 00:33:03;;;;;;;1.65;1.13;;;;;;;;;;4973349;28;20213;-74
2023/03/11 00:35:30;;;;;;;1.80;1.30;;;;;;;;;;4969091;28;20045;-75
2023/03/11 00:37:57;;;;;;;2.85;1.55;;;;;;;;;;4962868;28;20126;-75
2023/03/11 00:40:24;;;;;;;3.85;1.98;;;;;;;;;;4969707;28;20038;-75
2023/03/11 00:42:50;;;;;;;2.35;1.70;;;;;;;;;;4971057;28;20110;-74
2023/03/11 00:45:16;;;;;;;1.38;1.02;;;;;;;;;;4986672;28;20046;-75
2023/03/11 00:47:42;;;;;;;2.40;1.35;;;;;;;;;;4966167;28;20502;-75
2023/03/11 00:50:13;;;;;;;2.47;1.20;;;;;;;;;;4959737;28;20038;-75
2023/03/11 00:52:39;;;;;;;2.63;1.93;;;;;;;;;;4963123;28;20046;-74
2023/03/11 00:55:06;;;;;;;2.35;1.20;;;;;;;;;;4973460;28;20026;-74
2023/03/11 00:57:32;;;;;;;2.03;1.30;;;;;;;;;;4985032;28;20030;-74
2023/03/11 00:59:59;;;;;;;1.98;1.33;;;;;;;;;;4966744;28;20034;-75
2023/03/11 01:02:25;;;;;;;2.53;1.35;;;;;;;;;;4964087;28;20031;-75
2023/03/11 01:04:54;;;;;;;2.05;1.48;;;;;;;;;;4980074;28;20030;-75
2023/03/11 01:07:20;;;;;;;1.45;0.88;;;;;;;;;;4977152;28;20778;-75
2023/03/11 01:09:46;;;;;;;2.95;1.60;;;;;;;;;;4953439;28;20069;-75
2023/03/11 01:12:12;;;;;;;3.70;1.27;;;;;;;;;;4961214;28;20035;-74
2023/03/11 01:14:38;;;;;;;2.10;1.23;;;;;;;;;;4986997;28;20100;-74
2023/03/11 01:17:04;;;;;;;1.48;1.35;;;;;;;;;;4987199;28;20490;-74
2023/03/11 01:19:30;;;;;;;4.15;1.75;;;;;;;;;;4963994;28;20054;-74
2023/03/11 01:21:56;;;;;;;2.28;1.35;;;;;;;;;;4981503;28;20763;-74
2023/03/11 01:24:22;;;;;;;2.03;1.25;;;;;;;;;;4963611;28;20470;-74
2023/03/11 01:26:48;;;;;;;1.88;1.38;;;;;;;;;;4981120;28;20029;-74
2023/03/11 01:29:14;;;;;;;2.42;1.33;;;;;;;;;;4972404;28;20031;-74
2023/03/11 01:31:40;;;;;;;1.42;1.20;;;;;;;;;;4968255;28;20027;-74
2023/03/11 01:34:06;;;;;;;1.90;1.40;;;;;;;;;;4968368;28;20034;-74
2023/03/11 01:36:32;;;;;;;1.02;0.95;;;;;;;;;;4973789;28;20363;-75
2023/03/11 01:38:58;;;;;;;2.10;1.25;;;;;;;;;;4973562;28;20034;-74
2023/03/11 01:41:24;;;;;;;2.47;1.17;;;;;;;;;;4976652;28;20034;-74
2023/03/11 01:43:53;;;;;;;2.88;1.30;;;;;;;;;;4970908;28;20085;-74
2023/03/11 01:46:22;;;;;;;2.60;1.05;;;;;;;;;;4975772;28;20406;-74
2023/03/11 01:48:50;;;;;;;1.63;1.20;;;;;;;;;;4967819;28;20030;-74
2023/03/11 01:51:19;;;;;;;2.42;1.15;;;;;;;;;;4962797;28;20041;-74
2023/03/11 01:53:45;;;;;;;1.27;1.15;;;;;;;;;;4979253;28;20030;-74
2023/03/11 01:56:11;;;;;;;1.38;1.10;;;;;;;;;;4967843;28;20035;-74
2023/03/11 01:58:39;;;;;;;1.90;1.10;;;;;;;;;;4975609;28;20039;-73
2023/03/11 02:01:06;;;;;;;1.42;0.95;;;;;;;;;;4957162;28;20549;-74
2023/03/11 02:03:33;;;;;;;1.65;0.90;;;;;;;;;;4968096;28;20081;-74
2023/03/11 02:06:01;;;;;;;2.28;1.40;;;;;;;;;;4981998;28;20039;-75
2023/03/11 02:08:28;;;;;;;0.80;0.80;;;;;;;;;;4977605;28;20037;-74
2023/03/11 02:10:54;;;;;;;1.58;0.98;;;;;;;;;;4963246;28;20414;-74
2023/03/11 02:13:20;;;;;;;1.25;0.82;;;;;;;;;;4964663;28;20038;-74
2023/03/11 02:15:47;;;;;;;1.10;0.95;;;;;;;;;;4978629;28;20080;-74
2023/03/11 02:18:14;;;;;;;1.10;1.00;;;;;;;;;;4978076;28;20118;-74
2023/03/11 02:20:43;;;;;;;1.92;1.10;;;;;;;;;;4966980;28;20118;-74
2023/03/11 02:23:09;;;;;;;1.23;1.00;;;;;;;;;;4969958;28;20041;-75
2023/03/11 02:25:39;;;;;;;1.17;0.85;;;;;;;;;;4972352;28;20113;-74
2023/03/11 02:28:07;;;;;;;2.33;1.10;;;;;;;;;;4973258;28;20046;-74
2023/03/11 02:30:34;;;;;;;1.10;1.00;;;;;;;;;;4966351;28;20037;-74
2023/03/11 02:33:00;;;;;;;1.08;0.95;;;;;;;;;;4959344;28;20027;-74
2023/03/11 02:35:26;;;;;;;1.55;0.73;;;;;;;;;;4968725;28;20409;-74
2023/03/11 02:37:53;;;;;;;1.33;1.00;;;;;;;;;;4966658;28;20030;-73
2023/03/11 02:40:26;;;;;;;1.10;0.85;;;;;;;;;;4962699;28;20031;-74
2023/03/11 02:42:54;;;;;;;1.40;1.15;;;;;;;;;;4965895;28;20035;-74
2023/03/11 02:45:22;;;;;;;0.88;0.88;;;;;;;;;;4967329;28;20036;-75
2023/03/11 02:47:48;;;;;;;1.30;0.93;;;;;;;;;;4974175;28;20100;-74
2023/03/11 02:50:17;;;;;;;1.67;0.95;;;;;;;;;;4974652;28;20042;-74
2023/03/11 02:52:43;;;;;;;0.60;0.60;;;;;;;;;;4955882;28;20034;-74
2023/03/11 02:55:10;;;;;;;0.60;0.60;;;;;;;;;;4967402;28;20030;-74
2023/03/11 02:57:36;;;;;;;0.60;0.60;;;;;;;;;;4970081;28;22131;-73
2023/03/11 03:00:09;;;;;;;1.20;0.85;;;;;;;;;;4960673;28;20461;-74
2023/03/11 03:02:35;;;;;;;0.80;0.68;;;;;;;;;;4960768;28;20028;-75
2023/03/11 03:05:01;;;;;;;3.20;0.82;;;;;;;;;;4969629;28;20023;-75
2023/03/11 03:07:27;;;;;;;0.60;0.60;;;;;;;;;;4956570;28;20023;-74
2023/03/11 03:09:53;;;;;;;0.73;0.70;;;;;;;;;;4975673;28;20027;-75
2023/03/11 03:12:19;;;;;;;0.60;0.60;;;;;;;;;;4979200;28;20033;-74
2023/03/11 03:14:45;;;;;;;0.77;0.63;;;;;;;;;;4982561;28;20046;-74
2023/03/11 03:17:11;;;;;;;1.13;0.90;;;;;;;;;;4964813;28;20054;-74
2023/03/11 03:19:37;;;;;;;1.15;0.75;;;;;;;;;;4963039;28;20402;-74
2023/03/11 03:22:03;;;;;;;0.85;0.73;;;;;;;;;;4964321;28;20508;-73
2023/03/11 03:24:29;;;;;;;0.60;0.60;;;;;;;;;;4965244;28;20029;-74
2023/03/11 03:26:55;;;;;;;0.60;0.60;;;;;;;;;;4988786;28;20024;-75
2023/03/11 03:29:21;;;;;;;0.55;0.55;;;;;;;;;;4974156;28;20042;-75
2023/03/11 03:31:47;;;;;;;0.90;0.80;;;;;;;;;;4964108;28;20038;-74
2023/03/11 03:34:12;;;;;;;2.00;0.80;;;;;;;;;;4981079;28;20137;-74
2023/03/11 03:36:39;;;;;;;0.70;0.63;;;;;;;;;;4970640;28;20026;-73
2023/03/11 03:39:05;;;;;;;0.88;0.80;;;;;;;;;;4968150;28;20038;-74
2023/03/11 03:41:31;;;;;;;2.50;0.70;;;;;;;;;;4964087;28;20114;-73
2023/03/11 03:43:57;;;;;;;0.52;0.40;;;;;;;;;;4978165;28;20035;-74
2023/03/11 03:46:23;;;;;;;0.60;0.60;;;;;;;;;;4966010;28;20047;-74
2023/03/11 03:48:49;;;;;;;0.85;0.63;;;;;;;;;;4974118;28;20049;-74
2023/03/11 03:51:15;;;;;;;1.02;0.70;;;;;;;;;;4982114;28;20030;-74
2023/03/11 03:53:41;;;;;;;2.35;0.65;;;;;;;;;;4980121;28;20394;-74
2023/03/11 03:56:09;;;;;;;0.80;0.60;;;;;;;;;;4983470;28;20054;-74
2023/03/11 03:58:35;;;;;;;0.50;0.50;;;;;;;;;;4974615;28;20034;-74
2023/03/11 04:01:02;;;;;;;0.70;0.70;;;;;;;;;;4967310;28;20027;-75
2023/03/11 04:03:28;;;;;;;0.95;0.50;;;;;;;;;;4966393;28;20504;-75
2023/03/11 04:05:54;;;;;;;0.73;0.73;;;;;;;;;;4967157;28;20038;-74
2023/03/11 04:08:20;;;;;;;0.52;0.52;;;;;;;;;;4969265;28;20089;-75
2023/03/11 04:10:56;;;;;;;1.55;0.95;;;;;;;;;;4984083;28;20584;-75
2023/03/11 04:13:21;;;;;;;0.75;0.68;;;;;;;;;;4970775;28;20513;-74
2023/03/11 04:15:47;;;;;;;1.30;0.47;;;;;;;;;;4972470;28;20035;-74
2023/03/11 04:18:13;;;;;;;0.75;0.70;;;;;;;;;;4969726;28;20042;-74
2023/03/11 04:20:39;;;;;;;0.60;0.60;;;;;;;;;;4970364;28;20038;-75
2023/03/11 04:23:05;;;;;;;0.95;0.52;;;;;;;;;;4974935;28;20499;-74
2023/03/11 04:25:34;;;;;;;0.65;0.60;;;;;;;;;;4963769;28;20027;-75
2023/03/11 04:28:00;;;;;;;1.23;0.77;;;;;;;;;;4967321;28;20027;-74
2023/03/11 04:30:26;;;;;;;0.70;0.70;;;;;;;;;;4967157;28;20089;-73
2023/03/11 04:32:52;;;;;;;0.80;0.70;;;;;;;;;;4969284;28;20096;-74
2023/03/11 04:35:18;;;;;;;0.70;0.70;;;;;;;;;;4962911;28;20050;-74
2023/03/11 04:37:44;;;;;;;0.90;0.60;;;;;;;;;;4967440;28;20039;-74
2023/03/11 04:40:10;;;;;;;0.88;0.80;;;;;;;;;;4969077;28;20031;-74
2023/03/11 04:42:37;;;;;;;0.65;0.65;;;;;;;;;;4968058;28;20375;-74
2023/03/11 04:45:03;;;;;;;0.40;0.40;;;;;;;;;;4973450;28;20113;-74
2023/03/11 04:47:29;;;;;;;1.23;0.60;;;;;;;;;;4975959;28;20409;-74
2023/03/11 04:49:55;;;;;;;1.02;0.75;;;;;;;;;;4980244;28;20041;-74
2023/03/11 04:52:22;;;;;;;0.40;0.40;;;;;;;;;;4967786;28;20026;-73
2023/03/11 04:54:48;;;;;;;1.40;0.68;;;;;;;;;;4964109;28;20037;-74
2023/03/11 04:57:14;;;;;;;0.45;0.45;;;;;;;;;;4984558;28;20037;-73
2023/03/11 04:59:40;;;;;;;0.47;0.47;;;;;;;;;;4984918;28;20031;-73
2023/03/11 05:02:06;;;;;;;0.60;0.50;;;;;;;;;;4981564;28;20080;-74
2023/03/11 05:04:32;;;;;;;0.95;0.40;;;;;;;;;;4961329;28;20122;-74
2023/03/11 05:06:58;;;;;;;0.88;0.55;;;;;;;;;;4968861;28;20045;-73
2023/03/11 05:09:24;;;;;;;0.35;0.35;;;;;;;;;;4969212;28;20019;-73
2023/03/11 05:11:50;;;;;;;0.50;0.50;;;;;;;;;;4966303;28;20117;-73
2023/03/11 05:14:16;;;;;;;1.23;0.70;;;;;;;;;;4963956;28;20085;-73
2023/03/11 05:16:42;;;;;;;0.57;0.57;;;;;;;;;;4977930;28;20038;-73
2023/03/11 05:21:52;;;;;;;0.80;0.65;;;;;;;;;;4990443;28;20914;-74
2023/03/11 05:24:18;;;;;;;0.45;0.45;;;;;;;;;;4968050;28;20473;-74
2023/03/11 05:26:44;;;;;;;0.75;0.60;;;;;;;;;;4984060;28;20027;-74
2023/03/11 05:29:14;;;;;;;1.60;0.50;;;;;;;;;;4972967;28;20026;-74
2023/03/11 05:31:39;;;;;;;1.48;0.75;;;;;;;;;;4975095;28;20058;-73
2023/03/11 05:34:05;;;;;;;0.38;0.35;;;;;;;;;;4973346;28;20037;-74
2023/03/11 05:36:31;;;;;;;0.50;0.50;;;;;;;;;;4989726;28;20034;-74
2023/03/11 05:38:57;;;;;;;0.57;0.40;;;;;;;;;;4970892;28;20089;-73
2023/03/11 05:41:23;;;;;;;3.38;0.93;;;;;;;;;;4976821;28;20613;-74
2023/03/11 05:43:49;;;;;;;0.32;0.32;;;;;;;;;;4968968;28;20031;-74
2023/03/11 05:46:15;;;;;;;0.80;0.57;;;;;;;;;;4976042;28;20039;-73
2023/03/11 05:48:41;;;;;;;0.50;0.50;;;;;;;;;;4983573;28;20035;-74
2023/03/11 05:51:08;;;;;;;1.02;0.52;;;;;;;;;;4989657;28;20112;-74
2023/03/11 05:53:34;;;;;;;0.75;0.73;;;;;;;;;;4969416;28;20751;-74
2023/03/11 05:56:00;;;;;;;0.75;0.55;;;;;;;;;;4961760;28;20134;-74
2023/03/11 05:58:27;;;;;;;0.80;0.47;;;;;;;;;;4967109;28;20027;-75
2023/03/11 06:00:53;;;;;;;0.40;0.40;;;;;;;;;;4973974;28;20602;-74
2023/03/11 06:03:19;;;;;;;0.60;0.40;;;;;;;;;;4957201;28;20023;-74
2023/03/11 06:05:49;;;;;;;0.55;0.55;;;;;;;;;;4950947;28;20564;-74
2023/03/11 06:08:15;;;;;;;0.47;0.45;;;;;;;;;;4956640;28;20046;-74
2023/03/11 06:10:42;;;;;;;0.52;0.52;;;;;;;;;;4963703;28;20508;-74
2023/03/11 06:13:08;;;;;;;0.38;0.32;;;;;;;;;;4979685;28;20033;-74
2023/03/11 06:15:34;;;;;;;0.35;0.35;;;;;;;;;;4959718;28;20030;-74
2023/03/11 06:18:00;;;;;;;0.40;0.40;;;;;;;;;;4986127;28;20023;-74
2023/03/11 06:20:26;;;;;;;0.68;0.38;;;;;;;;;;4962578;28;20042;-74
2023/03/11 06:22:52;;;;;;;0.82;0.70;;;;;;;;;;4986204;28;20029;-74
2023/03/11 06:25:18;;;;;;;0.73;0.73;;;;;;;;;;4966977;28;20020;-74
2023/03/11 06:27:49;;;;;;;0.40;0.40;;;;;;;;;;4957603;28;20529;-74
2023/03/11 06:30:15;;;;;;;1.15;0.80;;;;;;;;;;4961426;28;20129;-74
2023/03/11 06:32:43;;;;;;;1.08;0.68;;;;;;;;;;4976749;28;20477;-74
2023/03/11 06:35:10;;;;;;;0.50;0.45;;;;;;;;;;4964964;28;20035;-74
2023/03/11 06:37:36;;;;;;;0.65;0.65;;;;;;;;;;4966420;28;20454;-73
2023/03/11 06:40:03;;;;;;;1.10;0.60;;;;;;;;;;4970465;28;20037;-74
2023/03/11 06:42:29;;;;;;;0.32;0.32;;;;;;;;;;4974225;28;20187;-73
2023/03/11 06:44:55;;;;;;;0.82;0.60;;;;;;;;;;4982764;28;20042;-74
2023/03/11 06:47:21;;;;;;;0.65;0.57;;;;;;;;;;4971861;28;20039;-74
2023/03/11 06:49:49;;;;;;;0.63;0.60;;;;;;;;;;4962899;28;20032;-74
2023/03/11 06:52:15;;;;;;;0.55;0.52;;;;;;;;;;4970478;28;20034;-74
2023/03/11 06:54:41;;;;;;;1.83;0.88;;;;;;;;;;4969127;28;20046;-74
2023/03/11 06:57:08;;;;;;;1.63;0.60;;;;;;;;;;4966917;28;20486;-74
2023/03/11 06:59:34;;;;;;;2.13;0.40;;;;;;;;;;4962830;28;20086;-75
2023/03/11 07:02:01;;;;;;;0.70;0.50;;;;;;;;;;4961081;28;20093;-74
2023/03/11 07:04:27;;;;;;;1.20;0.60;;;;;;;;;;4959760;28;20454;-74
2023/03/11 07:06:53;;;;;;;1.83;0.68;;;;;;;;;;4967917;28;20035;-74
2023/03/11 07:09:21;;;;;;;0.52;0.52;;;;;;;;;;4966633;28;20035;-74
2023/03/11 07:11:47;;;;;;;0.47;0.45;;;;;;;;;;4979993;28;20022;-74
2023/03/11 07:14:13;;;;;;;0.50;0.50;;;;;;;;;;4966053;28;20375;-74
2023/03/11 07:16:39;;;;;;;0.40;0.40;;;;;;;;;;4962746;28;20842;-74
2023/03/11 07:19:05;;;;;;;0.60;0.60;;;;;;;;;;4971452;28;20054;-74
2023/03/11 07:21:32;;;;;;;0.75;0.55;;;;;;;;;;4971884;28;20072;-74
2023/03/11 07:23:58;;;;;;;0.40;0.40;;;;;;;;;;4969808;28;20042;-74
2023/03/11 07:26:25;;;;;;;0.80;0.47;;;;;;;;;;4963101;28;20027;-73
2023/03/11 07:28:51;;;;;;;0.82;0.50;;;;;;;;;;4968096;28;20031;-75
2023/03/11 07:31:22;;;;;;;0.40;0.40;;;;;;;;;;4983733;28;20038;-74
2023/03/11 07:33:48;;;;;;;1.07;0.77;;;;;;;;;;4973517;28;20031;-74
2023/03/11 07:36:18;;;;;;;0.70;0.65;;;;;;;;;;4967023;28;20275;-74
2023/03/11 07:38:44;;;;;;;0.75;0.40;;;;;;;;;;4959328;28;20114;-74
2023/03/11 07:41:11;;;;;;;1.27;0.60;;;;;;;;;;4977360;28;20122;-74
2023/03/11 07:43:37;;;;;;;0.52;0.50;;;;;;;;;;4967422;28;20026;-74
2023/03/11 07:46:21;;;;;;;0.47;0.47;;;;;;;;;;4962650;28;20047;-74
2023/03/11 07:48:48;;;;;;;0.85;0.50;;;;;;;;;;4967828;28;20050;-74
2023/03/11 07:51:15;;;;;;;0.40;0.40;;;;;;;;;;4973135;28;20521;-74
2023/03/11 07:53:42;;;;;;;0.80;0.68;;;;;;;;;;4985409;28;20081;-74
2023/03/11 07:56:09;;;;;;;0.50;0.50;;;;;;;;;;4975626;28;20031;-75
2023/03/11 07:58:35;;;;;;;0.50;0.50;;;;;;;;;;4979889;28;20035;-74
2023/03/11 08:01:09;;;;;;;0.57;0.55;;;;;;;;;;4961954;28;20038;-75
2023/03/11 08:03:35;;;;;;;0.40;0.40;;;;;;;;;;4969745;28;20030;-74
2023/03/11 08:06:01;;;;;;;1.13;0.65;;;;;;;;;;4984112;28;20101;-74
2023/03/11 08:08:27;;;;;;;0.68;0.60;;;;;;;;;;4969870;28;20026;-74
2023/03/11 08:10:53;;;;;;;2.00;0.70;;;;;;;;;;4972265;28;20037;-74
2023/03/11 08:13:19;;;;;;;0.47;0.47;;;;;;;;;;4971093;28;20033;-74
2023/03/11 08:15:45;;;;;;;0.77;0.65;;;;;;;;;;4969061;28;20037;-75
2023/03/11 08:18:12;;;;;;;0.98;0.63;;;;;;;;;;4975194;28;20040;-74
2023/03/11 08:20:38;;;;;;;1.45;0.60;;;;;;;;;;4961300;28;20639;-74
2023/03/11 08:23:05;;;;;;;0.50;0.50;;;;;;;;;;4974111;28;20032;-75
2023/03/11 08:25:31;;;;;;;1.02;0.50;;;;;;;;;;4951057;28;20027;-75
2023/03/11 08:27:57;;;;;;;0.60;0.60;;;;;;;;;;4959377;28;20512;-74
2023/03/11 08:30:23;;;;;;;3.67;0.65;;;;;;;;;;4964097;28;20031;-83
2023/03/11 08:32:49;;;;;;;0.60;0.60;;;;;;;;;;4980348;28;20508;-82
2023/03/11 08:35:15;;;;;;;0.60;0.60;;;;;;;;;;4961852;28;20030;-80
2023/03/11 08:37:41;;;;;;;0.95;0.80;;;;;;;;;;4975815;28;20037;-81
2023/03/11 08:40:09;;;;;;;2.40;1.08;;;;;;;;;;4955820;28;20023;-81
2023/03/11 08:42:35;;;;;;;1.75;0.60;;;;;;;;;;4959342;28;20054;-82
2023/03/11 08:45:01;;;;;;;0.85;0.55;;;;;;;;;;4968289;28;20446;-81
2023/03/11 08:47:27;;;;;;;0.77;0.60;;;;;;;;;;4961388;28;20047;-78
2023/03/11 08:49:53;;;;;;;0.50;0.50;;;;;;;;;;4969607;28;20037;-76
2023/03/11 08:52:19;;;;;;;1.05;0.60;;;;;;;;;;4965254;28;20023;-76
2023/03/11 08:54:45;;;;;;;0.70;0.70;;;;;;;;;;4958215;28;20038;-76
2023/03/11 08:57:11;;;;;;;1.25;1.00;;;;;;;;;;4975974;28;20038;-77
2023/03/11 08:59:37;;;;;;;0.77;0.77;;;;;;;;;;4954617;28;20085;-76
2023/03/11 09:02:03;;;;;;;1.30;0.80;;;;;;;;;;4961930;28;20019;-76
2023/03/11 09:04:29;;;;;;;1.05;0.77;;;;;;;;;;4960597;28;20023;-77
2023/03/11 09:06:55;;;;;;;1.25;0.60;;;;;;;;;;4966323;28;20042;-75
2023/03/11 09:09:21;;;;;;;0.60;0.60;;;;;;;;;;4973170;28;20023;-76
2023/03/11 09:11:47;;;;;;;3.40;0.80;;;;;;;;;;4963751;28;20122;-76
2023/03/11 09:14:14;;;;;;;0.80;0.80;;;;;;;;;;4961913;28;20031;-76
2023/03/11 09:16:40;;;;;;;0.80;0.70;;;;;;;;;;4960704;28;20057;-75
2023/03/11 09:19:06;;;;;;;3.38;0.73;;;;;;;;;;4955570;28;20035;-77
2023/03/11 09:21:33;;;;;;;1.25;0.68;;;;;;;;;;4952702;28;20110;-76
2023/03/11 09:23:59;;;;;;;3.25;0.70;;;;;;;;;;4965951;28;20026;-76
2023/03/11 09:26:25;;;;;;;2.10;1.50;;;;;;;;;;4973750;28;20052;-77
2023/03/11 09:28:52;;;;;;;0.60;0.52;;;;;;;;;;4961603;28;20047;-76
2023/03/11 09:31:18;;;;;;;0.82;0.63;;;;;;;;;;4977425;28;20474;-76
2023/03/11 09:33:45;;;;;;;0.88;0.50;;;;;;;;;;4965586;28;20039;-76
2023/03/11 09:36:15;;;;;;;0.90;0.80;;;;;;;;;;4967295;28;20035;-76
2023/03/11 09:38:41;;;;;;;0.77;0.77;;;;;;;;;;4973562;28;20081;-76
2023/03/11 09:41:18;;;;;;;0.75;0.75;;;;;;;;;;4967417;28;20026;-77
2023/03/11 09:43:54;;;;;;;1.30;0.47;;;;;;;;;;4976562;28;20038;-79
2023/03/11 09:46:38;;;;;;;0.80;0.80;;;;;;;;;;4962277;28;20364;-79
2023/03/11 09:49:04;;;;;;;0.65;0.60;;;;;;;;;;4969022;28;20041;-75
2023/03/11 09:51:33;;;;;;;1.15;0.70;;;;;;;;;;4961466;28;20030;-78
2023/03/11 09:54:03;;;;;;;0.65;0.55;;;;;;;;;;4958520;28;20516;-77
2023/03/11 09:56:29;;;;;;;0.68;0.50;;;;;;;;;;4974368;28;20056;-76
2023/03/11 09:59:07;;;;;;;0.90;0.80;;;;;;;;;;4957334;28;20174;-77
2023/03/11 10:01:33;;;;;;;4.53;0.60;;;;;;;;;;4961516;28;20141;-77
2023/03/11 10:04:12;;;;;;;1.15;0.60;;;;;;;;;;4975029;28;20660;-77
2023/03/11 10:06:39;;;;;;;1.45;0.80;;;;;;;;;;4964749;28;20483;-76
2023/03/11 10:09:26;;;;;;;0.70;0.70;;;;;;;;;;4975927;28;20033;-75
2023/03/11 10:12:07;;;;;;;2.40;0.88;;;;;;;;;;4956011;28;20070;-76
2023/03/11 10:14:36;;;;;;;1.25;0.77;;;;;;;;;;4949592;28;20035;-76
2023/03/11 10:17:21;;;;;;;0.70;0.60;;;;;;;;;;4953484;28;20498;-76
2023/03/11 10:19:50;;;;;;;2.55;1.02;;;;;;;;;;4951958;28;20066;-75
2023/03/11 10:22:36;;;;;;;1.02;0.60;;;;;;;;;;4960758;28;20538;-84
2023/03/11 10:25:11;;;;;;;0.93;0.80;;;;;;;;;;4971224;28;20486;-77
2023/03/11 10:27:51;;;;;;;0.77;0.70;;;;;;;;;;4963131;28;20031;-78
2023/03/11 10:30:23;;;;;;;0.80;0.70;;;;;;;;;;4964016;28;20533;-78
2023/03/11 10:33:06;;;;;;;1.55;1.08;;;;;;;;;;4962901;28;20041;-77
2023/03/11 10:35:40;;;;;;;1.02;0.70;;;;;;;;;;4957019;28;20540;-78
2023/03/11 10:38:14;;;;;;;0.85;0.70;;;;;;;;;;4960483;28;20762;-76
2023/03/11 10:40:42;;;;;;;1.58;0.95;;;;;;;;;;4955940;28;20046;-76
2023/03/11 10:43:13;;;;;;;1.08;0.60;;;;;;;;;;4960879;28;20165;-78
2023/03/11 10:45:40;;;;;;;;;;;;;;;;;;4958236;28;20710;-79
2023/03/11 10:48:13;;;;;;;1.42;0.68;;;;;;;;;;4956835;28;20285;-79
2023/03/11 10:50:46;;;;;;;0.50;0.50;;;;;;;;;;4959446;28;20019;-78
2023/03/11 10:53:15;;;;;;;0.50;0.50;;;;;;;;;;4951868;28;20038;-79
2023/03/11 10:55:46;;;;;;;0.70;0.52;;;;;;;;;;4955232;28;20062;-78
2023/03/11 10:58:13;;;;;;;0.60;0.60;;;;;;;;;;4959223;28;20035;-78
2023/03/11 11:00:39;;;;;;;1.20;0.70;;;;;;;;;;4956247;28;20035;-80
2023/03/11 11:03:11;;;;;;;1.25;0.57;;;;;;;;;;4960968;28;20035;-79
2023/03/11 11:05:37;;;;;;;0.73;0.73;;;;;;;;;;4962073;28;20034;-78
2023/03/11 11:08:14;;;;;;;0.43;0.40;;;;;;;;;;4957605;28;20553;-78
2023/03/11 11:10:59;;;;;;;0.88;0.60;;;;;;;;;;4965142;28;20042;-79
2023/03/11 11:13:30;;;;;;;0.50;0.50;;;;;;;;;;4961642;28;20199;-78
2023/03/11 11:16:17;;;;;;;0.57;0.57;;;;;;;;;;4961570;28;20042;-85
2023/03/11 11:18:44;;;;;;;0.70;0.70;;;;;;;;;;4969129;28;20066;-80
2023/03/11 11:21:26;;;;;;;0.75;0.60;;;;;;;;;;4959261;28;20122;-75
2023/03/11 11:24:11;;;;;;;0.70;0.70;;;;;;;;;;4959377;28;20187;-75
2023/03/11 11:26:37;;;;;;;1.48;0.73;;;;;;;;;;4952414;28;20031;-75
2023/03/11 11:29:06;;;;;;;2.10;0.77;;;;;;;;;;4957790;28;20110;-75
2023/03/11 11:31:32;;;;;;;1.95;1.05;;;;;;;;;;4955550;28;20141;-75
2023/03/11 11:33:58;;;;;;;0.50;0.50;;;;;;;;;;4965204;28;20134;-75
2023/03/11 11:36:38;;;;;;;0.65;0.60;;;;;;;;;;4968832;28;20026;-76
2023/03/11 11:39:10;;;;;;;3.00;0.50;;;;;;;;;;4975123;28;20047;-75
2023/03/11 11:41:36;;;;;;;0.57;0.57;;;;;;;;;;4959530;28;20084;-75
2023/03/11 11:44:06;;;;;;;3.25;0.68;;;;;;;;;;4959221;28;20019;-75
2023/03/11 11:46:35;;;;;;;3.33;1.05;;;;;;;;;;4971928;28;20133;-76
2023/03/11 11:49:08;;;;;;;1.45;0.90;;;;;;;;;;4960588;28;20057;-75
2023/03/11 11:52:03;;;;;;;0.80;0.60;;;;;;;;;;4966961;28;20046;-75
2023/03/11 11:54:38;;;;;;;0.55;0.50;;;;;;;;;;4903314;29;20054;-75
2023/03/11 11:57:10;;;;;;;0.65;0.60;;;;;;;;;;4901627;29;20105;-75
2023/03/11 11:59:36;;;;;;;2.63;1.13;;;;;;;;;;4967567;28;20035;-76
2023/03/11 12:02:21;;;;;;;0.70;0.47;;;;;;;;;;4964684;28;20033;-75
2023/03/11 12:04:53;;;;;;;1.10;0.80;;;;;;;;;;4957721;28;20026;-75
2023/03/11 12:07:24;;;;;;;0.60;0.60;;;;;;;;;;4958321;28;20034;-75
2023/03/11 12:09:56;;;;;;;1.02;0.50;;;;;;;;;;4956963;28;20035;-75
2023/03/11 12:12:22;;;;;;;0.88;0.65;;;;;;;;;;4957812;28;20036;-75
2023/03/11 12:14:52;;;;;;;0.73;0.60;;;;;;;;;;4960058;28;20035;-75
2023/03/11 12:17:20;;;;;;;1.85;1.00;;;;;;;;;;4963069;28;20038;-75
2023/03/11 12:20:04;;;;;;;2.10;0.75;;;;;;;;;;4962583;28;20045;-75
2023/03/11 12:22:48;;;;;;;1.10;0.70;;;;;;;;;;4954195;28;20027;-76
2023/03/11 12:25:23;;;;;;;0.93;0.55;;;;;;;;;;4945979;28;20036;-74
2023/03/11 12:28:03;;;;;;;1.08;0.85;;;;;;;;;;4969312;28;20034;-75
2023/03/11 12:30:31;;;;;;;1.05;0.80;;;;;;;;;;4957976;28;20031;-80
2023/03/11 12:32:59;;;;;;;0.82;0.80;;;;;;;;;;4967750;28;20035;-76
2023/03/11 12:35:29;;;;;;;0.70;0.68;;;;;;;;;;4963966;28;20038;-77
2023/03/11 12:38:15;;;;;;;1.00;0.73;;;;;;;;;;4976699;28;20474;-78
2023/03/11 12:40:41;;;;;;;0.63;0.63;;;;;;;;;;4952564;28;20114;-77
2023/03/11 12:43:23;;;;;;;3.50;0.70;;;;;;;;;;4962045;28;20035;-78
2023/03/11 12:45:50;;;;;;;0.70;0.50;;;;;;;;;;4957842;28;20037;-80
2023/03/11 12:48:28;;;;;;;1.67;0.70;;;;;;;;;;4972100;28;20026;-76
2023/03/11 12:50:55;;;;;;;0.80;0.70;;;;;;;;;;4973820;28;20643;-78
2023/03/11 12:53:40;;;;;;;0.63;0.52;;;;;;;;;;4972733;28;20034;-81
2023/03/11 12:56:15;;;;;;;2.55;0.85;;;;;;;;;;4966262;28;20034;-82
2023/03/11 12:58:56;;;;;;;0.75;0.60;;;;;;;;;;4971808;28;20064;-80
2023/03/11 13:01:42;;;;;;;0.90;0.50;;;;;;;;;;4960352;28;20483;-77
2023/03/11 13:04:25;;;;;;;0.60;0.60;;;;;;;;;;4975718;28;20030;-79
2023/03/11 13:07:17;;;;;;;2.60;0.52;;;;;;;;;;4961982;28;20145;-78
2023/03/11 13:09:43;;;;;;;1.70;1.30;;;;;;;;;;4973892;28;20030;-75
2023/03/11 13:12:27;;;;;;;1.20;1.00;;;;;;;;;;4964999;28;20501;-77
2023/03/11 13:15:13;;;;;;;0.88;0.88;;;;;;;;;;4962608;28;20053;-83
2023/03/11 13:17:40;;;;;;;0.93;0.70;;;;;;;;;;4968049;28;20034;-83
2023/03/11 13:20:29;;;;;;;5.53;1.27;;;;;;;;;;4956798;28;20027;-84
2023/03/11 13:22:55;;;;;;;2.10;1.20;;;;;;;;;;4958831;28;20027;-82
2023/03/11 13:25:31;;;;;;;1.02;0.65;;;;;;;;;;4960652;28;20513;-85
2023/03/11 13:28:29;;;;;;;1.15;0.70;;;;;;;;;;4953082;28;20074;-85
2023/03/11 13:30:55;;;;;;;3.03;0.90;;;;;;;;;;4951167;28;20370;-82
2023/03/11 13:33:25;;;;;;;1.13;1.02;;;;;;;;;;4963319;28;20613;-85
2023/03/11 13:36:12;;;;;;;0.55;0.55;;;;;;;;;;4961874;28;20040;-79
2023/03/11 13:38:54;;;;;;;1.10;0.68;;;;;;;;;;4952230;28;20114;-82
2023/03/11 13:41:24;;;;;;;0.80;0.80;;;;;;;;;;4953443;28;20031;-81
2023/03/11 13:43:50;;;;;;;0.70;0.70;;;;;;;;;;4958653;28;20031;-76
2023/03/11 13:46:25;;;;;;;1.75;0.93;;;;;;;;;;4952672;28;20426;-77
2023/03/11 13:48:53;;;;;;;0.90;0.70;;;;;;;;;;4947473;28;20607;-80
2023/03/11 13:51:22;;;;;;;1.00;0.70;;;;;;;;;;4954429;28;20474;-81
2023/03/11 13:53:54;;;;;;;0.60;0.60;;;;;;;;;;4953754;28;20077;-76
2023/03/11 13:56:26;;;;;;;0.68;0.68;;;;;;;;;;4946489;28;20031;-78
2023/03/11 13:58:52;;;;;;;1.23;0.90;;;;;;;;;;4942028;28;20489;-79
2023/03/11 14:01:18;;;;;;;0.77;0.77;;;;;;;;;;4939906;28;20045;-79
2023/03/11 14:03:45;;;;;;;0.60;0.60;;;;;;;;;;4950350;28;20081;-80
2023/03/11 14:06:15;;;;;;;1.92;0.95;;;;;;;;;;4941107;28;20445;-81
2023/03/11 14:08:42;;;;;;;1.38;0.90;;;;;;;;;;4955666;28;20022;-83
2023/03/11 14:11:11;;;;;;;1.50;0.90;;;;;;;;;;4954144;28;20027;-79
2023/03/11 14:13:48;;;;;;;1.00;0.70;;;;;;;;;;4954615;28;20069;-85
2023/03/11 14:16:14;;;;;;;0.73;0.70;;;;;;;;;;4959173;28;20030;-85
2023/03/11 14:18:45;;;;;;;1.08;0.80;;;;;;;;;;4959860;28;20565;-84
2023/03/11 14:21:21;;;;;;;1.05;0.80;;;;;;;;;;4957403;28;20030;-81
2023/03/11 14:23:51;;;;;;;1.05;0.77;;;;;;;;;;4955686;28;20043;-85
2023/03/11 14:26:32;;;;;;;1.75;0.73;;;;;;;;;;4951124;28;20039;-83
2023/03/11 14:29:00;;;;;;;0.52;0.52;;;;;;;;;;4956474;28;20031;-78
2023/03/11 14:31:45;;;;;;;0.68;0.68;;;;;;;;;;4951537;28;20034;-74
2023/03/11 14:34:16;;;;;;;0.55;0.55;;;;;;;;;;4954344;28;20133;-74
2023/03/11 14:36:53;;;;;;;1.38;0.80;;;;;;;;;;4959352;28;20260;-80
2023/03/11 14:39:32;;;;;;;0.77;0.70;;;;;;;;;;4948102;28;20043;-79
2023/03/11 14:42:05;;;;;;;0.70;0.70;;;;;;;;;;4955176;28;20385;-74
2023/03/11 14:44:32;;;;;;;0.68;0.68;;;;;;;;;;4966661;28;20041;-81
2023/03/11 14:47:14;;;;;;;1.52;0.68;;;;;;;;;;4974953;28;20251;-83
2023/03/11 14:49:40;;;;;;;;;;;;;;;;;;4958807;28;20047;-81
2023/03/11 14:52:15;;;;;;;1.63;0.90;;;;;;;;;;4969528;28;19924;-87
2023/03/11 14:54:41;;;;;;;0.65;0.52;;;;;;;;;;4969660;28;20043;-79
2023/03/11 14:57:16;;;;;;;1.35;0.80;;;;;;;;;;4963312;28;20035;-77